sensor_id;sensor_type;location;lat;lon;timestamp;P1;durP1;ratioP1;P2;durP2;ratioP2
76125;SDS011;65174;48.138;21.002;2024-02-21T00:04:32;48.33;;;21.13;;
76125;SDS011;65174;48.138;21.002;2024-02-21T00:07:38;46.83;;;20.20;;
76125;SDS011;65174;48.138;21.002;2024-02-21T00:10:40;46.10;;;19.58;;
76125;SDS011;65174;48.138;21.002;2024-02-21T00:13:42;44.70;;;19.60;;
76125;SDS011;65174;48.138;21.002;2024-02-21T00:16:45;40.55;;;18.55;;
76125;SDS011;65174;48.138;21.002;2024-02-21T00:19:46;54.47;;;20.20;;
76125;SDS011;65174;48.138;21.002;2024-02-21T00:22:48;41.83;;;18.43;;
76125;SDS011;65174;48.138;21.002;2024-02-21T00:25:51;44.47;;;18.58;;
76125;SDS011;65174;48.138;21.002;2024-02-21T00:28:53;45.85;;;20.65;;
76125;SDS011;65174;48.138;21.002;2024-02-21T00:31:55;53.63;;;21.50;;
76125;SDS011;65174;48.138;21.002;2024-02-21T00:34:57;49.10;;;20.30;;
76125;SDS011;65174;48.138;21.002;2024-02-21T00:37:59;51.13;;;20.93;;
76125;SDS011;65174;48.138;21.002;2024-02-21T00:41:01;42.80;;;19.35;;
76125;SDS011;65174;48.138;21.002;2024-02-21T00:44:03;45.28;;;18.95;;
76125;SDS011;65174;48.138;21.002;2024-02-21T00:47:07;51.75;;;21.13;;
76125;SDS011;65174;48.138;21.002;2024-02-21T00:50:09;50.97;;;20.50;;
76125;SDS011;65174;48.138;21.002;2024-02-21T00:53:11;47.10;;;19.03;;
76125;SDS011;65174;48.138;21.002;2024-02-21T00:56:13;53.08;;;22.42;;
76125;SDS011;65174;48.138;21.002;2024-02-21T00:59:15;47.03;;;19.90;;
76125;SDS011;65174;48.138;21.002;2024-02-21T01:02:18;54.08;;;21.70;;
76125;SDS011;65174;48.138;21.002;2024-02-21T01:05:20;53.33;;;22.30;;
76125;SDS011;65174;48.138;21.002;2024-02-21T01:08:22;50.87;;;21.03;;
76125;SDS011;65174;48.138;21.002;2024-02-21T01:11:24;53.80;;;22.10;;
76125;SDS011;65174;48.138;21.002;2024-02-21T01:14:26;50.42;;;22.92;;
76125;SDS011;65174;48.138;21.002;2024-02-21T01:17:28;54.10;;;21.85;;
76125;SDS011;65174;48.138;21.002;2024-02-21T01:20:30;60.95;;;23.35;;
76125;SDS011;65174;48.138;21.002;2024-02-21T01:23:32;49.53;;;20.40;;
76125;SDS011;65174;48.138;21.002;2024-02-21T01:26:35;48.75;;;20.15;;
76125;SDS011;65174;48.138;21.002;2024-02-21T01:29:37;44.40;;;21.15;;
76125;SDS011;65174;48.138;21.002;2024-02-21T01:32:39;58.67;;;23.13;;
76125;SDS011;65174;48.138;21.002;2024-02-21T01:35:41;55.45;;;22.33;;
76125;SDS011;65174;48.138;21.002;2024-02-21T01:38:43;55.47;;;21.80;;
76125;SDS011;65174;48.138;21.002;2024-02-21T01:41:45;54.28;;;21.08;;
76125;SDS011;65174;48.138;21.002;2024-02-21T01:44:47;48.65;;;19.73;;
76125;SDS011;65174;48.138;21.002;2024-02-21T01:47:49;49.47;;;20.73;;
76125;SDS011;65174;48.138;21.002;2024-02-21T01:50:52;38.85;;;18.00;;
76125;SDS011;65174;48.138;21.002;2024-02-21T01:53:56;42.13;;;19.27;;
76125;SDS011;65174;48.138;21.002;2024-02-21T01:56:59;46.38;;;19.48;;
76125;SDS011;65174;48.138;21.002;2024-02-21T02:00:01;58.38;;;20.75;;
76125;SDS011;65174;48.138;21.002;2024-02-21T02:03:11;53.55;;;20.35;;
76125;SDS011;65174;48.138;21.002;2024-02-21T02:06:20;54.42;;;20.67;;
76125;SDS011;65174;48.138;21.002;2024-02-21T02:09:22;49.87;;;21.77;;
76125;SDS011;65174;48.138;21.002;2024-02-21T02:12:24;45.47;;;20.50;;
76125;SDS011;65174;48.138;21.002;2024-02-21T02:15:26;48.20;;;21.35;;
76125;SDS011;65174;48.138;21.002;2024-02-21T02:18:28;39.65;;;17.77;;
76125;SDS011;65174;48.138;21.002;2024-02-21T02:21:32;46.50;;;20.00;;
76125;SDS011;65174;48.138;21.002;2024-02-21T02:24:39;46.67;;;17.60;;
76125;SDS011;65174;48.138;21.002;2024-02-21T02:27:42;45.25;;;19.83;;
76125;SDS011;65174;48.138;21.002;2024-02-21T02:30:46;44.20;;;18.90;;
76125;SDS011;65174;48.138;21.002;2024-02-21T02:33:48;42.45;;;18.90;;
76125;SDS011;65174;48.138;21.002;2024-02-21T02:36:50;55.90;;;21.85;;
76125;SDS011;65174;48.138;21.002;2024-02-21T02:39:52;64.43;;;22.23;;
76125;SDS011;65174;48.138;21.002;2024-02-21T02:42:54;62.45;;;24.85;;
76125;SDS011;65174;48.138;21.002;2024-02-21T02:45:56;57.42;;;23.48;;
76125;SDS011;65174;48.138;21.002;2024-02-21T02:48:58;52.92;;;22.52;;
76125;SDS011;65174;48.138;21.002;2024-02-21T02:52:01;48.10;;;20.20;;
76125;SDS011;65174;48.138;21.002;2024-02-21T02:55:03;48.73;;;19.57;;
76125;SDS011;65174;48.138;21.002;2024-02-21T02:58:06;49.53;;;20.40;;
76125;SDS011;65174;48.138;21.002;2024-02-21T03:01:08;51.47;;;20.70;;
76125;SDS011;65174;48.138;21.002;2024-02-21T03:04:10;57.65;;;21.73;;
76125;SDS011;65174;48.138;21.002;2024-02-21T03:07:13;56.53;;;20.83;;
76125;SDS011;65174;48.138;21.002;2024-02-21T03:10:16;42.47;;;19.17;;
76125;SDS011;65174;48.138;21.002;2024-02-21T03:13:19;61.25;;;20.60;;
76125;SDS011;65174;48.138;21.002;2024-02-21T03:16:21;53.05;;;20.27;;
76125;SDS011;65174;48.138;21.002;2024-02-21T03:19:24;52.80;;;22.30;;
76125;SDS011;65174;48.138;21.002;2024-02-21T03:22:26;55.13;;;20.75;;
76125;SDS011;65174;48.138;21.002;2024-02-21T03:25:28;55.77;;;22.07;;
76125;SDS011;65174;48.138;21.002;2024-02-21T03:28:30;54.22;;;20.10;;
76125;SDS011;65174;48.138;21.002;2024-02-21T03:31:32;53.25;;;21.67;;
76125;SDS011;65174;48.138;21.002;2024-02-21T03:34:34;53.38;;;20.50;;
76125;SDS011;65174;48.138;21.002;2024-02-21T03:37:37;49.25;;;20.13;;
76125;SDS011;65174;48.138;21.002;2024-02-21T03:40:39;47.77;;;19.33;;
76125;SDS011;65174;48.138;21.002;2024-02-21T03:43:41;38.70;;;16.95;;
76125;SDS011;65174;48.138;21.002;2024-02-21T03:46:43;43.80;;;18.48;;
76125;SDS011;65174;48.138;21.002;2024-02-21T03:49:45;60.03;;;21.17;;
76125;SDS011;65174;48.138;21.002;2024-02-21T03:52:47;48.10;;;19.08;;
76125;SDS011;65174;48.138;21.002;2024-02-21T03:55:49;49.17;;;20.30;;
76125;SDS011;65174;48.138;21.002;2024-02-21T03:58:51;52.63;;;18.95;;
76125;SDS011;65174;48.138;21.002;2024-02-21T04:01:53;49.88;;;20.50;;
76125;SDS011;65174;48.138;21.002;2024-02-21T04:04:55;45.95;;;18.45;;
76125;SDS011;65174;48.138;21.002;2024-02-21T04:07:58;46.92;;;18.73;;
76125;SDS011;65174;48.138;21.002;2024-02-21T04:11:00;48.47;;;19.33;;
76125;SDS011;65174;48.138;21.002;2024-02-21T04:14:02;48.63;;;18.38;;
76125;SDS011;65174;48.138;21.002;2024-02-21T04:17:05;43.70;;;17.20;;
76125;SDS011;65174;48.138;21.002;2024-02-21T04:20:13;38.97;;;16.58;;
76125;SDS011;65174;48.138;21.002;2024-02-21T04:23:16;40.25;;;17.30;;
76125;SDS011;65174;48.138;21.002;2024-02-21T04:26:18;30.97;;;13.20;;
76125;SDS011;65174;48.138;21.002;2024-02-21T04:29:20;38.33;;;15.32;;
76125;SDS011;65174;48.138;21.002;2024-02-21T04:32:22;35.60;;;13.80;;
76125;SDS011;65174;48.138;21.002;2024-02-21T04:35:24;35.78;;;13.95;;
76125;SDS011;65174;48.138;21.002;2024-02-21T04:38:26;29.15;;;13.05;;
76125;SDS011;65174;48.138;21.002;2024-02-21T04:41:28;31.53;;;13.17;;
76125;SDS011;65174;48.138;21.002;2024-02-21T04:44:30;28.80;;;13.07;;
76125;SDS011;65174;48.138;21.002;2024-02-21T04:47:32;32.47;;;11.05;;
76125;SDS011;65174;48.138;21.002;2024-02-21T04:50:34;22.67;;;9.63;;
76125;SDS011;65174;48.138;21.002;2024-02-21T04:53:36;26.98;;;11.25;;
76125;SDS011;65174;48.138;21.002;2024-02-21T04:56:38;36.97;;;13.40;;
76125;SDS011;65174;48.138;21.002;2024-02-21T04:59:40;23.38;;;10.77;;
76125;SDS011;65174;48.138;21.002;2024-02-21T05:02:42;29.67;;;11.65;;
76125;SDS011;65174;48.138;21.002;2024-02-21T05:05:44;31.73;;;13.32;;
76125;SDS011;65174;48.138;21.002;2024-02-21T05:08:46;31.75;;;13.95;;
76125;SDS011;65174;48.138;21.002;2024-02-21T05:11:49;32.03;;;12.73;;
76125;SDS011;65174;48.138;21.002;2024-02-21T05:14:51;33.10;;;13.82;;
76125;SDS011;65174;48.138;21.002;2024-02-21T05:17:53;31.23;;;13.98;;
76125;SDS011;65174;48.138;21.002;2024-02-21T05:20:55;30.00;;;13.63;;
76125;SDS011;65174;48.138;21.002;2024-02-21T05:23:57;29.10;;;13.77;;
76125;SDS011;65174;48.138;21.002;2024-02-21T05:26:59;31.77;;;14.33;;
76125;SDS011;65174;48.138;21.002;2024-02-21T05:30:01;30.35;;;12.98;;
76125;SDS011;65174;48.138;21.002;2024-02-21T05:33:05;30.42;;;12.98;;
76125;SDS011;65174;48.138;21.002;2024-02-21T05:36:08;33.70;;;13.43;;
76125;SDS011;65174;48.138;21.002;2024-02-21T05:39:10;29.02;;;13.55;;
76125;SDS011;65174;48.138;21.002;2024-02-21T05:42:12;30.63;;;14.33;;
76125;SDS011;65174;48.138;21.002;2024-02-21T05:45:14;27.33;;;13.30;;
76125;SDS011;65174;48.138;21.002;2024-02-21T05:48:17;25.40;;;12.07;;
76125;SDS011;65174;48.138;21.002;2024-02-21T05:51:19;22.98;;;12.02;;
76125;SDS011;65174;48.138;21.002;2024-02-21T05:54:21;22.13;;;10.63;;
76125;SDS011;65174;48.138;21.002;2024-02-21T05:57:23;28.10;;;10.13;;
76125;SDS011;65174;48.138;21.002;2024-02-21T06:00:25;24.35;;;11.05;;
76125;SDS011;65174;48.138;21.002;2024-02-21T06:03:28;28.02;;;11.75;;
76125;SDS011;65174;48.138;21.002;2024-02-21T06:06:30;26.80;;;12.02;;
76125;SDS011;65174;48.138;21.002;2024-02-21T06:09:32;30.48;;;11.45;;
76125;SDS011;65174;48.138;21.002;2024-02-21T06:12:34;27.23;;;12.53;;
76125;SDS011;65174;48.138;21.002;2024-02-21T06:36:01;36.28;;;15.93;;
76125;SDS011;65174;48.138;21.002;2024-02-21T06:39:03;44.33;;;17.00;;
76125;SDS011;65174;48.138;21.002;2024-02-21T06:42:09;39.88;;;17.33;;
76125;SDS011;65174;48.138;21.002;2024-02-21T06:45:11;55.13;;;21.55;;
76125;SDS011;65174;48.138;21.002;2024-02-21T06:48:13;45.60;;;19.23;;
76125;SDS011;65174;48.138;21.002;2024-02-21T06:51:15;58.05;;;21.95;;
76125;SDS011;65174;48.138;21.002;2024-02-21T06:54:17;52.73;;;20.77;;
76125;SDS011;65174;48.138;21.002;2024-02-21T06:57:19;44.85;;;19.38;;
76125;SDS011;65174;48.138;21.002;2024-02-21T07:00:21;46.55;;;21.40;;
76125;SDS011;65174;48.138;21.002;2024-02-21T07:03:26;55.88;;;21.65;;
76125;SDS011;65174;48.138;21.002;2024-02-21T07:06:30;46.13;;;18.08;;
76125;SDS011;65174;48.138;21.002;2024-02-21T07:09:36;48.57;;;19.20;;
76125;SDS011;65174;48.138;21.002;2024-02-21T07:12:38;48.65;;;19.55;;
76125;SDS011;65174;48.138;21.002;2024-02-21T07:15:43;38.40;;;17.27;;
76125;SDS011;65174;48.138;21.002;2024-02-21T07:18:45;41.60;;;18.25;;
76125;SDS011;65174;48.138;21.002;2024-02-21T07:21:47;43.70;;;18.52;;
76125;SDS011;65174;48.138;21.002;2024-02-21T07:24:49;36.23;;;15.07;;
76125;SDS011;65174;48.138;21.002;2024-02-21T07:27:51;36.88;;;15.65;;
76125;SDS011;65174;48.138;21.002;2024-02-21T07:30:53;23.40;;;9.95;;
76125;SDS011;65174;48.138;21.002;2024-02-21T07:33:55;16.77;;;8.68;;
76125;SDS011;65174;48.138;21.002;2024-02-21T07:36:57;22.38;;;9.40;;
76125;SDS011;65174;48.138;21.002;2024-02-21T07:39:59;16.23;;;8.57;;
76125;SDS011;65174;48.138;21.002;2024-02-21T07:43:01;14.32;;;6.85;;
76125;SDS011;65174;48.138;21.002;2024-02-21T07:46:03;14.02;;;6.18;;
76125;SDS011;65174;48.138;21.002;2024-02-21T07:49:06;14.93;;;6.40;;
76125;SDS011;65174;48.138;21.002;2024-02-21T07:52:08;13.30;;;6.80;;
76125;SDS011;65174;48.138;21.002;2024-02-21T07:55:11;11.43;;;5.63;;
76125;SDS011;65174;48.138;21.002;2024-02-21T07:58:13;7.00;;;4.90;;
76125;SDS011;65174;48.138;21.002;2024-02-21T08:01:19;10.90;;;6.03;;
76125;SDS011;65174;48.138;21.002;2024-02-21T08:04:22;11.40;;;5.85;;
76125;SDS011;65174;48.138;21.002;2024-02-21T08:07:24;7.90;;;4.68;;
76125;SDS011;65174;48.138;21.002;2024-02-21T08:10:27;10.77;;;4.93;;
76125;SDS011;65174;48.138;21.002;2024-02-21T08:13:29;7.85;;;4.70;;
76125;SDS011;65174;48.138;21.002;2024-02-21T08:16:31;8.13;;;4.60;;
76125;SDS011;65174;48.138;21.002;2024-02-21T08:19:33;6.93;;;3.92;;
76125;SDS011;65174;48.138;21.002;2024-02-21T08:22:37;6.50;;;3.40;;
76125;SDS011;65174;48.138;21.002;2024-02-21T08:25:40;8.60;;;3.43;;
76125;SDS011;65174;48.138;21.002;2024-02-21T08:28:42;7.03;;;3.33;;
76125;SDS011;65174;48.138;21.002;2024-02-21T08:31:44;5.88;;;3.42;;
76125;SDS011;65174;48.138;21.002;2024-02-21T08:56:10;5.78;;;3.42;;
76125;SDS011;65174;48.138;21.002;2024-02-21T08:59:13;5.72;;;3.25;;
76125;SDS011;65174;48.138;21.002;2024-02-21T09:02:16;7.15;;;4.22;;
76125;SDS011;65174;48.138;21.002;2024-02-21T09:05:19;6.80;;;3.90;;
76125;SDS011;65174;48.138;21.002;2024-02-21T09:08:21;9.10;;;4.22;;
76125;SDS011;65174;48.138;21.002;2024-02-21T09:11:23;7.63;;;4.90;;
76125;SDS011;65174;48.138;21.002;2024-02-21T09:14:26;8.52;;;4.32;;
76125;SDS011;65174;48.138;21.002;2024-02-21T09:17:28;5.50;;;3.30;;
76125;SDS011;65174;48.138;21.002;2024-02-21T09:20:31;6.90;;;3.50;;
76125;SDS011;65174;48.138;21.002;2024-02-21T09:23:33;5.53;;;2.70;;
76125;SDS011;65174;48.138;21.002;2024-02-21T09:26:35;4.60;;;2.78;;
76125;SDS011;65174;48.138;21.002;2024-02-21T09:29:37;5.30;;;3.20;;
76125;SDS011;65174;48.138;21.002;2024-02-21T09:32:41;10.02;;;4.00;;
76125;SDS011;65174;48.138;21.002;2024-02-21T09:35:43;4.13;;;2.30;;
76125;SDS011;65174;48.138;21.002;2024-02-21T09:38:45;6.07;;;2.85;;
76125;SDS011;65174;48.138;21.002;2024-02-21T09:41:50;4.75;;;2.75;;
76125;SDS011;65174;48.138;21.002;2024-02-21T09:44:57;5.63;;;3.05;;
76125;SDS011;65174;48.138;21.002;2024-02-21T09:51:37;6.33;;;3.47;;
76125;SDS011;65174;48.138;21.002;2024-02-21T09:54:41;6.82;;;3.83;;
76125;SDS011;65174;48.138;21.002;2024-02-21T09:57:46;12.50;;;6.03;;
76125;SDS011;65174;48.138;21.002;2024-02-21T10:00:49;14.45;;;7.32;;
76125;SDS011;65174;48.138;21.002;2024-02-21T10:03:51;12.93;;;7.50;;
76125;SDS011;65174;48.138;21.002;2024-02-21T10:06:55;15.43;;;8.33;;
76125;SDS011;65174;48.138;21.002;2024-02-21T10:10:03;15.55;;;7.70;;
76125;SDS011;65174;48.138;21.002;2024-02-21T10:13:05;14.95;;;7.72;;
76125;SDS011;65174;48.138;21.002;2024-02-21T10:16:09;12.50;;;5.85;;
76125;SDS011;65174;48.138;21.002;2024-02-21T10:19:18;8.80;;;4.90;;
76125;SDS011;65174;48.138;21.002;2024-02-21T10:22:21;7.17;;;4.30;;
76125;SDS011;65174;48.138;21.002;2024-02-21T10:25:23;9.70;;;5.40;;
76125;SDS011;65174;48.138;21.002;2024-02-21T10:28:25;10.10;;;5.05;;
76125;SDS011;65174;48.138;21.002;2024-02-21T10:31:27;10.70;;;5.47;;
76125;SDS011;65174;48.138;21.002;2024-02-21T10:34:30;7.63;;;4.47;;
76125;SDS011;65174;48.138;21.002;2024-02-21T10:37:32;8.50;;;4.30;;
76125;SDS011;65174;48.138;21.002;2024-02-21T10:40:34;10.45;;;4.90;;
76125;SDS011;65174;48.138;21.002;2024-02-21T10:43:40;8.27;;;4.30;;
76125;SDS011;65174;48.138;21.002;2024-02-21T10:46:43;3.75;;;2.42;;
76125;SDS011;65174;48.138;21.002;2024-02-21T10:49:49;5.03;;;2.58;;
76125;SDS011;65174;48.138;21.002;2024-02-21T10:52:56;4.40;;;2.10;;
76125;SDS011;65174;48.138;21.002;2024-02-21T10:59:22;4.28;;;2.38;;
76125;SDS011;65174;48.138;21.002;2024-02-21T11:02:25;4.93;;;2.20;;
76125;SDS011;65174;48.138;21.002;2024-02-21T11:05:30;2.70;;;1.92;;
76125;SDS011;65174;48.138;21.002;2024-02-21T11:08:34;5.10;;;3.17;;
76125;SDS011;65174;48.138;21.002;2024-02-21T11:11:39;5.57;;;3.65;;
76125;SDS011;65174;48.138;21.002;2024-02-21T11:14:43;5.85;;;3.45;;
76125;SDS011;65174;48.138;21.002;2024-02-21T11:17:55;4.32;;;3.20;;
76125;SDS011;65174;48.138;21.002;2024-02-21T11:21:02;4.85;;;2.80;;
76125;SDS011;65174;48.138;21.002;2024-02-21T11:24:06;4.33;;;2.83;;
76125;SDS011;65174;48.138;21.002;2024-02-21T11:30:14;5.60;;;2.90;;
76125;SDS011;65174;48.138;21.002;2024-02-21T11:33:17;6.22;;;3.20;;
76125;SDS011;65174;48.138;21.002;2024-02-21T11:36:26;4.45;;;2.65;;
76125;SDS011;65174;48.138;21.002;2024-02-21T11:39:29;11.13;;;5.90;;
76125;SDS011;65174;48.138;21.002;2024-02-21T11:42:32;9.15;;;3.70;;
76125;SDS011;65174;48.138;21.002;2024-02-21T11:45:34;4.78;;;2.70;;
76125;SDS011;65174;48.138;21.002;2024-02-21T11:48:36;5.45;;;3.30;;
76125;SDS011;65174;48.138;21.002;2024-02-21T11:51:38;7.20;;;3.22;;
76125;SDS011;65174;48.138;21.002;2024-02-21T11:54:40;8.63;;;3.47;;
76125;SDS011;65174;48.138;21.002;2024-02-21T11:57:42;4.07;;;1.95;;
76125;SDS011;65174;48.138;21.002;2024-02-21T12:00:46;7.22;;;3.25;;
76125;SDS011;65174;48.138;21.002;2024-02-21T12:03:48;8.27;;;3.10;;
76125;SDS011;65174;48.138;21.002;2024-02-21T12:06:54;4.90;;;2.85;;
76125;SDS011;65174;48.138;21.002;2024-02-21T12:09:58;5.67;;;2.70;;
76125;SDS011;65174;48.138;21.002;2024-02-21T12:13:05;9.55;;;3.10;;
76125;SDS011;65174;48.138;21.002;2024-02-21T12:16:10;6.05;;;2.65;;
76125;SDS011;65174;48.138;21.002;2024-02-21T12:19:12;3.90;;;2.60;;
76125;SDS011;65174;48.138;21.002;2024-02-21T12:22:18;5.55;;;3.00;;
76125;SDS011;65174;48.138;21.002;2024-02-21T12:25:21;7.83;;;2.83;;
76125;SDS011;65174;48.138;21.002;2024-02-21T12:28:25;5.40;;;3.10;;
76125;SDS011;65174;48.138;21.002;2024-02-21T12:31:27;5.00;;;3.13;;
76125;SDS011;65174;48.138;21.002;2024-02-21T12:34:29;7.72;;;3.67;;
76125;SDS011;65174;48.138;21.002;2024-02-21T12:37:49;9.57;;;3.67;;
76125;SDS011;65174;48.138;21.002;2024-02-21T12:40:51;9.80;;;4.63;;
76125;SDS011;65174;48.138;21.002;2024-02-21T12:43:54;10.80;;;4.75;;
76125;SDS011;65174;48.138;21.002;2024-02-21T12:46:55;7.65;;;3.95;;
76125;SDS011;65174;48.138;21.002;2024-02-21T12:49:58;8.10;;;4.20;;
76125;SDS011;65174;48.138;21.002;2024-02-21T12:53:00;8.48;;;3.95;;
76125;SDS011;65174;48.138;21.002;2024-02-21T12:56:02;8.67;;;4.53;;
76125;SDS011;65174;48.138;21.002;2024-02-21T12:59:06;11.40;;;3.67;;
76125;SDS011;65174;48.138;21.002;2024-02-21T13:02:11;6.70;;;3.30;;
76125;SDS011;65174;48.138;21.002;2024-02-21T13:05:13;3.90;;;2.60;;
76125;SDS011;65174;48.138;21.002;2024-02-21T13:08:15;6.63;;;2.55;;
76125;SDS011;65174;48.138;21.002;2024-02-21T13:11:17;4.03;;;2.30;;
76125;SDS011;65174;48.138;21.002;2024-02-21T13:14:19;6.72;;;2.88;;
76125;SDS011;65174;48.138;21.002;2024-02-21T13:17:22;7.57;;;3.35;;
76125;SDS011;65174;48.138;21.002;2024-02-21T13:20:27;6.20;;;2.70;;
76125;SDS011;65174;48.138;21.002;2024-02-21T13:23:30;6.30;;;3.85;;
76125;SDS011;65174;48.138;21.002;2024-02-21T13:26:32;5.37;;;3.17;;
76125;SDS011;65174;48.138;21.002;2024-02-21T13:29:35;14.32;;;3.60;;
76125;SDS011;65174;48.138;21.002;2024-02-21T13:32:37;7.38;;;3.35;;
76125;SDS011;65174;48.138;21.002;2024-02-21T13:35:39;7.45;;;2.63;;
76125;SDS011;65174;48.138;21.002;2024-02-21T13:38:41;7.78;;;3.60;;
76125;SDS011;65174;48.138;21.002;2024-02-21T13:41:43;8.30;;;3.50;;
76125;SDS011;65174;48.138;21.002;2024-02-21T13:44:45;8.23;;;3.28;;
76125;SDS011;65174;48.138;21.002;2024-02-21T13:47:48;7.95;;;3.90;;
76125;SDS011;65174;48.138;21.002;2024-02-21T13:50:50;9.77;;;4.88;;
76125;SDS011;65174;48.138;21.002;2024-02-21T13:53:57;12.85;;;6.13;;
76125;SDS011;65174;48.138;21.002;2024-02-21T13:57:08;24.37;;;7.27;;
76125;SDS011;65174;48.138;21.002;2024-02-21T14:00:21;21.15;;;8.50;;
76125;SDS011;65174;48.138;21.002;2024-02-21T14:03:31;22.15;;;7.68;;
76125;SDS011;65174;48.138;21.002;2024-02-21T14:06:41;16.60;;;5.10;;
76125;SDS011;65174;48.138;21.002;2024-02-21T14:10:03;15.70;;;6.80;;
76125;SDS011;65174;48.138;21.002;2024-02-21T14:13:26;10.23;;;4.60;;
76125;SDS011;65174;48.138;21.002;2024-02-21T14:16:48;11.65;;;5.95;;
76125;SDS011;65174;48.138;21.002;2024-02-21T14:20:00;19.40;;;6.35;;
76125;SDS011;65174;48.138;21.002;2024-02-21T14:23:02;10.48;;;5.25;;
76125;SDS011;65174;48.138;21.002;2024-02-21T14:26:06;12.98;;;5.68;;
76125;SDS011;65174;48.138;21.002;2024-02-21T14:29:08;84.23;;;8.57;;
76125;SDS011;65174;48.138;21.002;2024-02-21T14:32:18;15.48;;;5.68;;
76125;SDS011;65174;48.138;21.002;2024-02-21T14:35:28;8.13;;;3.53;;
76125;SDS011;65174;48.138;21.002;2024-02-21T14:55:14;29.13;;;10.65;;
76125;SDS011;65174;48.138;21.002;2024-02-21T14:58:16;16.63;;;7.70;;
76125;SDS011;65174;48.138;21.002;2024-02-21T15:01:20;19.50;;;9.43;;
76125;SDS011;65174;48.138;21.002;2024-02-21T15:04:22;7.55;;;4.35;;
76125;SDS011;65174;48.138;21.002;2024-02-21T15:07:25;40.70;;;15.93;;
76125;SDS011;65174;48.138;21.002;2024-02-21T15:10:28;37.95;;;18.00;;
76125;SDS011;65174;48.138;21.002;2024-02-21T15:13:30;40.15;;;17.20;;
76125;SDS011;65174;48.138;21.002;2024-02-21T15:16:32;30.65;;;16.45;;
76125;SDS011;65174;48.138;21.002;2024-02-21T15:19:35;18.60;;;9.60;;
76125;SDS011;65174;48.138;21.002;2024-02-21T15:22:41;17.80;;;9.43;;
76125;SDS011;65174;48.138;21.002;2024-02-21T15:25:43;22.20;;;8.63;;
76125;SDS011;65174;48.138;21.002;2024-02-21T15:28:45;18.27;;;8.63;;
76125;SDS011;65174;48.138;21.002;2024-02-21T15:31:47;10.75;;;6.78;;
76125;SDS011;65174;48.138;21.002;2024-02-21T15:34:49;16.77;;;9.38;;
76125;SDS011;65174;48.138;21.002;2024-02-21T15:37:53;31.47;;;10.23;;
76125;SDS011;65174;48.138;21.002;2024-02-21T15:40:55;51.60;;;18.13;;
76125;SDS011;65174;48.138;21.002;2024-02-21T15:43:57;39.10;;;17.42;;
76125;SDS011;65174;48.138;21.002;2024-02-21T15:47:00;23.98;;;11.15;;
76125;SDS011;65174;48.138;21.002;2024-02-21T15:50:06;16.75;;;7.95;;
76125;SDS011;65174;48.138;21.002;2024-02-21T15:53:09;13.33;;;6.13;;
76125;SDS011;65174;48.138;21.002;2024-02-21T15:56:12;11.65;;;5.43;;
76125;SDS011;65174;48.138;21.002;2024-02-21T15:59:15;13.05;;;8.05;;
76125;SDS011;65174;48.138;21.002;2024-02-21T16:02:17;14.15;;;8.85;;
76125;SDS011;65174;48.138;21.002;2024-02-21T16:05:19;11.88;;;7.03;;
76125;SDS011;65174;48.138;21.002;2024-02-21T16:08:22;11.40;;;6.70;;
76125;SDS011;65174;48.138;21.002;2024-02-21T16:11:25;20.08;;;8.98;;
76125;SDS011;65174;48.138;21.002;2024-02-21T16:14:27;17.35;;;7.85;;
76125;SDS011;65174;48.138;21.002;2024-02-21T16:17:29;20.90;;;7.88;;
76125;SDS011;65174;48.138;21.002;2024-02-21T16:20:31;16.85;;;9.25;;
76125;SDS011;65174;48.138;21.002;2024-02-21T16:23:34;23.80;;;10.93;;
76125;SDS011;65174;48.138;21.002;2024-02-21T16:26:36;20.88;;;10.50;;
76125;SDS011;65174;48.138;21.002;2024-02-21T16:29:39;20.83;;;10.27;;
76125;SDS011;65174;48.138;21.002;2024-02-21T16:32:42;13.45;;;6.53;;
76125;SDS011;65174;48.138;21.002;2024-02-21T16:35:45;8.93;;;5.63;;
76125;SDS011;65174;48.138;21.002;2024-02-21T16:38:47;17.10;;;8.33;;
76125;SDS011;65174;48.138;21.002;2024-02-21T16:41:51;14.20;;;7.28;;
76125;SDS011;65174;48.138;21.002;2024-02-21T16:44:59;15.18;;;8.50;;
76125;SDS011;65174;48.138;21.002;2024-02-21T16:48:02;22.10;;;9.70;;
76125;SDS011;65174;48.138;21.002;2024-02-21T16:51:08;25.52;;;10.57;;
76125;SDS011;65174;48.138;21.002;2024-02-21T16:54:10;50.57;;;19.67;;
76125;SDS011;65174;48.138;21.002;2024-02-21T16:57:12;47.40;;;18.98;;
76125;SDS011;65174;48.138;21.002;2024-02-21T17:00:14;24.75;;;10.30;;
76125;SDS011;65174;48.138;21.002;2024-02-21T17:03:17;13.50;;;6.82;;
76125;SDS011;65174;48.138;21.002;2024-02-21T17:06:22;34.20;;;9.73;;
76125;SDS011;65174;48.138;21.002;2024-02-21T17:09:24;13.10;;;6.67;;
76125;SDS011;65174;48.138;21.002;2024-02-21T17:12:26;15.30;;;6.80;;
76125;SDS011;65174;48.138;21.002;2024-02-21T17:15:29;17.08;;;8.15;;
76125;SDS011;65174;48.138;21.002;2024-02-21T17:18:31;18.40;;;7.35;;
76125;SDS011;65174;48.138;21.002;2024-02-21T17:21:34;16.95;;;6.65;;
76125;SDS011;65174;48.138;21.002;2024-02-21T17:24:36;20.43;;;8.97;;
76125;SDS011;65174;48.138;21.002;2024-02-21T17:27:38;22.65;;;9.90;;
76125;SDS011;65174;48.138;21.002;2024-02-21T17:30:40;25.30;;;10.82;;
76125;SDS011;65174;48.138;21.002;2024-02-21T17:33:42;18.98;;;7.85;;
76125;SDS011;65174;48.138;21.002;2024-02-21T17:36:44;14.10;;;7.45;;
76125;SDS011;65174;48.138;21.002;2024-02-21T17:39:47;12.20;;;6.50;;
76125;SDS011;65174;48.138;21.002;2024-02-21T17:42:50;9.05;;;5.00;;
76125;SDS011;65174;48.138;21.002;2024-02-21T17:45:52;10.82;;;6.00;;
76125;SDS011;65174;48.138;21.002;2024-02-21T17:48:58;14.52;;;7.25;;
76125;SDS011;65174;48.138;21.002;2024-02-21T17:52:00;14.25;;;6.95;;
76125;SDS011;65174;48.138;21.002;2024-02-21T17:55:03;15.33;;;6.90;;
76125;SDS011;65174;48.138;21.002;2024-02-21T17:58:07;17.58;;;7.47;;
76125;SDS011;65174;48.138;21.002;2024-02-21T18:01:10;24.23;;;9.18;;
76125;SDS011;65174;48.138;21.002;2024-02-21T18:04:12;17.70;;;8.30;;
76125;SDS011;65174;48.138;21.002;2024-02-21T18:07:14;14.82;;;7.38;;
76125;SDS011;65174;48.138;21.002;2024-02-21T18:10:16;12.67;;;7.13;;
76125;SDS011;65174;48.138;21.002;2024-02-21T18:13:18;13.30;;;6.93;;
76125;SDS011;65174;48.138;21.002;2024-02-21T18:16:21;14.93;;;7.95;;
76125;SDS011;65174;48.138;21.002;2024-02-21T18:19:24;14.00;;;7.53;;
76125;SDS011;65174;48.138;21.002;2024-02-21T18:22:26;12.05;;;6.28;;
76125;SDS011;65174;48.138;21.002;2024-02-21T18:25:29;15.90;;;6.53;;
76125;SDS011;65174;48.138;21.002;2024-02-21T18:28:32;13.95;;;6.85;;
76125;SDS011;65174;48.138;21.002;2024-02-21T18:31:34;15.82;;;7.85;;
76125;SDS011;65174;48.138;21.002;2024-02-21T18:34:38;18.33;;;8.10;;
76125;SDS011;65174;48.138;21.002;2024-02-21T18:37:40;15.13;;;7.22;;
76125;SDS011;65174;48.138;21.002;2024-02-21T18:40:43;16.00;;;6.70;;
76125;SDS011;65174;48.138;21.002;2024-02-21T18:43:45;20.05;;;6.63;;
76125;SDS011;65174;48.138;21.002;2024-02-21T18:46:47;17.05;;;6.93;;
76125;SDS011;65174;48.138;21.002;2024-02-21T18:49:52;19.67;;;9.23;;
76125;SDS011;65174;48.138;21.002;2024-02-21T18:52:54;21.45;;;9.10;;
76125;SDS011;65174;48.138;21.002;2024-02-21T18:55:57;22.80;;;8.20;;
76125;SDS011;65174;48.138;21.002;2024-02-21T18:58:59;22.40;;;9.30;;